sensor_id;sensor_type;location;lat;lon;timestamp;pressure;altitude;pressure_sealevel;temperature;humidity
3697;BME280;60662;48.810;8.872;2023-04-07T07:06:56;96366.09;;;7.84;80.42
3697;BME280;60662;48.810;8.872;2023-04-07T07:20:12;96378.25;;;7.60;80.28
3697;BME280;60662;48.810;8.872;2023-04-07T07:22:00;96365.31;;;8.04;78.61
3697;BME280;60662;48.810;8.872;2023-04-07T07:23:04;96375.16;;;8.40;77.83
3697;BME280;60662;48.810;8.872;2023-04-07T07:24:05;96376.69;;;8.89;76.35
3697;BME280;60662;48.810;8.872;2023-04-07T07:25:07;96373.38;;;9.06;74.23
3697;BME280;60662;48.810;8.872;2023-04-07T07:26:09;96378.06;;;9.18;74.20
3697;BME280;60662;48.810;8.872;2023-04-07T07:27:11;96377.97;;;9.59;73.69
3697;BME280;60662;48.810;8.872;2023-04-07T07:28:13;96378.06;;;10.15;71.90
3697;BME280;60662;48.810;8.872;2023-04-07T07:29:25;96375.56;;;10.68;69.54
3697;BME280;60662;48.810;8.872;2023-04-07T07:30:27;96371.47;;;11.15;67.77
3697;BME280;60662;48.810;8.872;2023-04-07T07:31:29;96360.13;;;10.98;65.91
3697;BME280;60662;48.810;8.872;2023-04-07T07:32:32;96375.69;;;11.35;64.54
3697;BME280;60662;48.810;8.872;2023-04-07T07:33:33;96370.50;;;12.16;63.04
3697;BME280;60662;48.810;8.872;2023-04-07T07:34:35;96367.78;;;12.50;60.85
3697;BME280;60662;48.810;8.872;2023-04-07T07:35:36;96371.50;;;12.14;60.55
3697;BME280;60662;48.810;8.872;2023-04-07T07:36:38;96374.41;;;11.75;63.07
3697;BME280;60662;48.810;8.872;2023-04-07T07:37:39;96373.41;;;11.78;63.58
3697;BME280;60662;48.810;8.872;2023-04-07T07:38:41;96365.03;;;12.05;63.47
3697;BME280;60662;48.810;8.872;2023-04-07T07:39:42;96358.31;;;12.31;63.12
3697;BME280;60662;48.810;8.872;2023-04-07T07:40:44;96376.06;;;12.26;62.35
3697;BME280;60662;48.810;8.872;2023-04-07T07:41:48;96371.47;;;12.92;61.34
3697;BME280;60662;48.810;8.872;2023-04-07T07:42:55;96370.25;;;12.21;63.01
3697;BME280;60662;48.810;8.872;2023-04-07T07:43:57;96371.84;;;12.23;63.04
3697;BME280;60662;48.810;8.872;2023-04-07T07:44:58;96375.91;;;12.13;64.16
3697;BME280;60662;48.810;8.872;2023-04-07T07:46:00;96377.38;;;12.65;62.68
3697;BME280;60662;48.810;8.872;2023-04-07T07:47:02;96378.28;;;12.64;61.81
3697;BME280;60662;48.810;8.872;2023-04-07T07:48:03;96373.47;;;12.72;60.27
3697;BME280;60662;48.810;8.872;2023-04-07T07:49:05;96377.25;;;12.83;60.15
3697;BME280;60662;48.810;8.872;2023-04-07T07:50:06;96379.59;;;13.32;61.13
3697;BME280;60662;48.810;8.872;2023-04-07T07:51:08;96372.78;;;13.87;59.76
3697;BME280;60662;48.810;8.872;2023-04-07T07:52:10;96379.13;;;13.98;58.68
3697;BME280;60662;48.810;8.872;2023-04-07T07:53:11;96375.41;;;13.87;59.12
3697;BME280;60662;48.810;8.872;2023-04-07T07:54:12;96373.84;;;14.27;58.55
3697;BME280;60662;48.810;8.872;2023-04-07T07:55:14;96370.28;;;14.28;58.19
3697;BME280;60662;48.810;8.872;2023-04-07T07:56:15;96371.03;;;13.45;59.32
3697;BME280;60662;48.810;8.872;2023-04-07T07:57:17;96367.94;;;14.23;58.62
3697;BME280;60662;48.810;8.872;2023-04-07T07:58:18;55703.94;;;-145.49;100.00
3697;BME280;60662;48.810;8.872;2023-04-07T07:59:20;55703.94;;;-145.49;100.00
3697;BME280;60662;48.810;8.872;2023-04-07T08:00:21;55703.94;;;-145.49;100.00
3697;BME280;60662;48.810;8.872;2023-04-07T08:01:24;55703.94;;;-145.49;100.00
3697;BME280;60662;48.810;8.872;2023-04-07T08:02:26;55703.94;;;-145.49;100.00
3697;BME280;60662;48.810;8.872;2023-04-07T08:03:31;55703.94;;;-145.49;100.00
3697;BME280;60662;48.810;8.872;2023-04-07T08:04:34;55703.94;;;-145.49;100.00
3697;BME280;60662;48.810;8.872;2023-04-07T08:05:36;96367.94;;;14.23;58.62
3697;BME280;60662;48.810;8.872;2023-04-07T08:06:38;96374.84;;;14.39;55.09
3697;BME280;60662;48.810;8.872;2023-04-07T08:07:39;96371.19;;;14.41;56.49
3697;BME280;60662;48.810;8.872;2023-04-07T08:08:41;96368.06;;;14.07;57.16
3697;BME280;60662;48.810;8.872;2023-04-07T08:09:42;96371.91;;;14.01;56.44
3697;BME280;60662;48.810;8.872;2023-04-07T08:10:44;96354.09;;;14.07;54.31
3697;BME280;60662;48.810;8.872;2023-04-07T08:11:46;96372.69;;;14.31;54.66
3697;BME280;60662;48.810;8.872;2023-04-07T08:12:51;96368.97;;;15.02;54.21
3697;BME280;60662;48.810;8.872;2023-04-07T08:13:52;96366.22;;;15.17;56.34
3697;BME280;60662;48.810;8.872;2023-04-07T08:14:54;96363.28;;;15.09;54.25
3697;BME280;60662;48.810;8.872;2023-04-07T08:15:56;96367.81;;;15.07;55.04
3697;BME280;60662;48.810;8.872;2023-04-07T08:16:57;96366.34;;;15.28;54.29
3697;BME280;60662;48.810;8.872;2023-04-07T08:17:59;96361.06;;;15.02;53.97
3697;BME280;60662;48.810;8.872;2023-04-07T08:19:00;96364.91;;;14.84;54.20
3697;BME280;60662;48.810;8.872;2023-04-07T08:20:03;96375.09;;;14.21;54.92
3697;BME280;60662;48.810;8.872;2023-04-07T08:21:05;96371.84;;;14.03;54.50
3697;BME280;60662;48.810;8.872;2023-04-07T08:22:07;96377.47;;;13.82;55.95
3697;BME280;60662;48.810;8.872;2023-04-07T08:23:09;96381.59;;;14.01;57.58
3697;BME280;60662;48.810;8.872;2023-04-07T08:24:10;96376.69;;;14.09;57.28
3697;BME280;60662;48.810;8.872;2023-04-07T08:25:22;96378.34;;;14.52;54.97
3697;BME280;60662;48.810;8.872;2023-04-07T08:26:24;96381.22;;;13.93;55.86
3697;BME280;60662;48.810;8.872;2023-04-07T08:27:26;96385.25;;;13.84;56.13
3697;BME280;60662;48.810;8.872;2023-04-07T08:28:27;96387.94;;;14.11;57.26
3697;BME280;60662;48.810;8.872;2023-04-07T08:29:29;96386.34;;;14.50;56.13
3697;BME280;60662;48.810;8.872;2023-04-07T08:30:32;96384.00;;;14.46;57.53
3697;BME280;60662;48.810;8.872;2023-04-07T08:31:33;96385.09;;;13.73;57.86
3697;BME280;60662;48.810;8.872;2023-04-07T08:32:39;96385.22;;;13.26;58.74
3697;BME280;60662;48.810;8.872;2023-04-07T08:33:41;96385.66;;;13.04;59.44
3697;BME280;60662;48.810;8.872;2023-04-07T08:34:42;96381.44;;;12.71;59.57
3697;BME280;60662;48.810;8.872;2023-04-07T08:35:44;96388.75;;;12.80;60.55
3697;BME280;60662;48.810;8.872;2023-04-07T08:36:46;96387.28;;;12.90;60.33
3697;BME280;60662;48.810;8.872;2023-04-07T08:37:48;96386.63;;;12.87;60.38
3697;BME280;60662;48.810;8.872;2023-04-07T08:38:50;96386.44;;;12.28;60.39
3697;BME280;60662;48.810;8.872;2023-04-07T08:39:52;96392.19;;;12.18;60.92
3697;BME280;60662;48.810;8.872;2023-04-07T08:40:57;96391.34;;;12.50;61.88
3697;BME280;60662;48.810;8.872;2023-04-07T08:42:01;96375.97;;;11.96;61.19
3697;BME280;60662;48.810;8.872;2023-04-07T08:43:07;96386.22;;;11.67;62.56
3697;BME280;60662;48.810;8.872;2023-04-07T08:44:10;96383.03;;;11.77;63.44
3697;BME280;60662;48.810;8.872;2023-04-07T08:45:12;96384.47;;;11.83;63.89
3697;BME280;60662;48.810;8.872;2023-04-07T08:46:14;96385.44;;;11.98;64.05
3697;BME280;60662;48.810;8.872;2023-04-07T08:47:16;96389.50;;;12.36;63.39
3697;BME280;60662;48.810;8.872;2023-04-07T08:48:22;96391.25;;;12.35;62.53
3697;BME280;60662;48.810;8.872;2023-04-07T08:49:26;96388.00;;;12.32;62.10
3697;BME280;60662;48.810;8.872;2023-04-07T08:50:30;96386.59;;;12.56;62.63
3697;BME280;60662;48.810;8.872;2023-04-07T08:51:32;96387.59;;;12.70;61.62
3697;BME280;60662;48.810;8.872;2023-04-07T08:52:55;96380.09;;;12.64;61.68
3697;BME280;60662;48.810;8.872;2023-04-07T08:55:03;96387.00;;;13.26;59.66
3697;BME280;60662;48.810;8.872;2023-04-07T08:56:08;96380.25;;;13.36;60.53
3697;BME280;60662;48.810;8.872;2023-04-07T08:57:12;96369.78;;;13.65;59.68
3697;BME280;60662;48.810;8.872;2023-04-07T08:58:14;96390.59;;;13.39;58.79
3697;BME280;60662;48.810;8.872;2023-04-07T08:59:16;96389.56;;;13.42;59.39
3697;BME280;60662;48.810;8.872;2023-04-07T09:00:19;96383.16;;;13.31;59.42
3697;BME280;60662;48.810;8.872;2023-04-07T09:01:21;96387.63;;;13.29;59.79
3697;BME280;60662;48.810;8.872;2023-04-07T09:02:23;96388.56;;;13.14;59.03
3697;BME280;60662;48.810;8.872;2023-04-07T09:03:25;96385.53;;;13.50;58.88
3697;BME280;60662;48.810;8.872;2023-04-07T09:04:27;96384.22;;;13.72;57.23
3697;BME280;60662;48.810;8.872;2023-04-07T09:05:29;96373.75;;;13.58;56.66
3697;BME280;60662;48.810;8.872;2023-04-07T09:06:34;96378.41;;;13.81;58.16
3697;BME280;60662;48.810;8.872;2023-04-07T09:07:37;96395.84;;;13.82;57.70
3697;BME280;60662;48.810;8.872;2023-04-07T09:08:42;96387.41;;;14.33;56.64
3697;BME280;60662;48.810;8.872;2023-04-07T09:09:44;96397.03;;;14.20;56.72
3697;BME280;60662;48.810;8.872;2023-04-07T09:10:45;96388.38;;;14.32;57.03
3697;BME280;60662;48.810;8.872;2023-04-07T09:11:47;96395.16;;;14.49;57.05
3697;BME280;60662;48.810;8.872;2023-04-07T09:12:49;96389.06;;;15.16;56.01
3697;BME280;60662;48.810;8.872;2023-04-07T09:13:50;96379.81;;;15.75;55.04
3697;BME280;60662;48.810;8.872;2023-04-07T09:14:52;96382.34;;;15.25;54.78
3697;BME280;60662;48.810;8.872;2023-04-07T09:15:54;96397.94;;;14.61;54.11
3697;BME280;60662;48.810;8.872;2023-04-07T09:16:56;96394.03;;;14.12;56.67
3697;BME280;60662;48.810;8.872;2023-04-07T09:17:58;96392.78;;;13.61;56.57
3697;BME280;60662;48.810;8.872;2023-04-07T09:18:59;96390.97;;;13.62;56.48
3697;BME280;60662;48.810;8.872;2023-04-07T09:20:01;96404.22;;;13.30;56.82
3697;BME280;60662;48.810;8.872;2023-04-07T09:21:04;96404.41;;;13.27;57.09
3697;BME280;60662;48.810;8.872;2023-04-07T09:22:06;96403.63;;;13.98;56.84
3697;BME280;60662;48.810;8.872;2023-04-07T09:23:26;96402.13;;;13.94;55.98
3697;BME280;60662;48.810;8.872;2023-04-07T09:24:29;96398.44;;;14.53;54.63
3697;BME280;60662;48.810;8.872;2023-04-07T09:25:34;96398.06;;;14.17;53.78
3697;BME280;60662;48.810;8.872;2023-04-07T09:26:35;96398.09;;;14.03;54.64
3697;BME280;60662;48.810;8.872;2023-04-07T09:27:37;96394.34;;;13.49;54.70
3697;BME280;60662;48.810;8.872;2023-04-07T09:28:42;96395.47;;;13.45;55.87
3697;BME280;60662;48.810;8.872;2023-04-07T09:29:45;96390.03;;;13.03;55.29
3697;BME280;60662;48.810;8.872;2023-04-07T09:30:54;96390.50;;;13.41;55.50
3697;BME280;60662;48.810;8.872;2023-04-07T09:31:55;96386.84;;;14.01;54.44
3697;BME280;60662;48.810;8.872;2023-04-07T09:32:59;96381.53;;;14.30;53.83
3697;BME280;60662;48.810;8.872;2023-04-07T09:34:02;96389.63;;;14.81;53.59
3697;BME280;60662;48.810;8.872;2023-04-07T09:35:05;96384.22;;;15.10;52.91
3697;BME280;60662;48.810;8.872;2023-04-07T09:36:07;96367.09;;;15.56;51.79
3697;BME280;60662;48.810;8.872;2023-04-07T09:37:20;96378.66;;;15.54;50.17
3697;BME280;60662;48.810;8.872;2023-04-07T09:38:32;96389.78;;;15.06;50.65
3697;BME280;60662;48.810;8.872;2023-04-07T09:39:51;96386.16;;;15.60;51.22
3697;BME280;60662;48.810;8.872;2023-04-07T09:41:04;96388.53;;;14.44;53.56
3697;BME280;60662;48.810;8.872;2023-04-07T09:42:06;96389.16;;;14.47;52.72
3697;BME280;60662;48.810;8.872;2023-04-07T09:43:17;96388.97;;;14.09;51.24
3697;BME280;60662;48.810;8.872;2023-04-07T09:44:20;96380.81;;;14.13;53.17
3697;BME280;60662;48.810;8.872;2023-04-07T09:45:28;96389.69;;;14.25;53.40
3697;BME280;60662;48.810;8.872;2023-04-07T09:46:56;96394.91;;;13.83;52.94
3697;BME280;60662;48.810;8.872;2023-04-07T09:47:58;96394.16;;;13.96;53.07
3697;BME280;60662;48.810;8.872;2023-04-07T09:49:01;96393.22;;;13.68;52.65
3697;BME280;60662;48.810;8.872;2023-04-07T09:50:05;96395.88;;;13.53;53.52
3697;BME280;60662;48.810;8.872;2023-04-07T09:51:10;96389.56;;;13.42;53.42
3697;BME280;60662;48.810;8.872;2023-04-07T09:52:12;96390.69;;;13.07;53.36
3697;BME280;60662;48.810;8.872;2023-04-07T09:53:17;96390.72;;;13.21;53.80
3697;BME280;60662;48.810;8.872;2023-04-07T09:54:40;96366.63;;;13.74;53.42
3697;BME280;60662;48.810;8.872;2023-04-07T09:55:42;96394.00;;;14.26;52.57
3697;BME280;60662;48.810;8.872;2023-04-07T09:56:44;96370.78;;;14.75;49.87
3697;BME280;60662;48.810;8.872;2023-04-07T09:57:48;96386.28;;;14.79;51.00
3697;BME280;60662;48.810;8.872;2023-04-07T09:58:50;96383.81;;;14.76;50.23
3697;BME280;60662;48.810;8.872;2023-04-07T09:59:52;96383.13;;;14.60;49.14
3697;BME280;60662;48.810;8.872;2023-04-07T10:00:55;96380.41;;;15.01;49.19
3697;BME280;60662;48.810;8.872;2023-04-07T10:01:59;96387.09;;;15.20;49.30
3697;BME280;60662;48.810;8.872;2023-04-07T10:03:02;96389.91;;;15.17;50.56
3697;BME280;60662;48.810;8.872;2023-04-07T10:04:11;96390.00;;;15.15;52.36
3697;BME280;60662;48.810;8.872;2023-04-07T10:05:13;96393.38;;;14.64;53.75
3697;BME280;60662;48.810;8.872;2023-04-07T10:06:15;96398.16;;;14.58;55.18
3697;BME280;60662;48.810;8.872;2023-04-07T10:07:17;96385.28;;;14.67;54.36
3697;BME280;60662;48.810;8.872;2023-04-07T10:08:18;96399.25;;;14.26;55.39
3697;BME280;60662;48.810;8.872;2023-04-07T10:09:26;96404.47;;;13.55;55.11
3697;BME280;60662;48.810;8.872;2023-04-07T10:10:29;96389.44;;;13.29;56.45
3697;BME280;60662;48.810;8.872;2023-04-07T10:11:31;96406.31;;;13.39;56.65
3697;BME280;60662;48.810;8.872;2023-04-07T10:12:34;96404.63;;;13.38;56.66
3697;BME280;60662;48.810;8.872;2023-04-07T10:13:39;96412.25;;;13.12;56.44
3697;BME280;60662;48.810;8.872;2023-04-07T10:14:41;96398.53;;;12.93;58.06
3697;BME280;60662;48.810;8.872;2023-04-07T10:15:48;96404.47;;;13.11;57.90
3697;BME280;60662;48.810;8.872;2023-04-07T10:16:50;96406.66;;;12.88;57.83
3697;BME280;60662;48.810;8.872;2023-04-07T10:17:52;96393.19;;;12.64;58.86
3697;BME280;60662;48.810;8.872;2023-04-07T10:18:54;96393.34;;;12.61;58.76
3697;BME280;60662;48.810;8.872;2023-04-07T10:19:57;96404.38;;;12.19;60.08
3697;BME280;60662;48.810;8.872;2023-04-07T10:21:01;96395.34;;;12.09;60.58
3697;BME280;60662;48.810;8.872;2023-04-07T10:22:04;96397.19;;;12.07;60.22
3697;BME280;60662;48.810;8.872;2023-04-07T10:23:18;96396.69;;;12.00;60.21
3697;BME280;60662;48.810;8.872;2023-04-07T10:24:36;96395.81;;;12.00;60.62
3697;BME280;60662;48.810;8.872;2023-04-07T10:25:40;96401.66;;;12.21;60.76
3697;BME280;60662;48.810;8.872;2023-04-07T10:26:42;96393.47;;;12.11;60.46
3697;BME280;60662;48.810;8.872;2023-04-07T10:27:48;96398.66;;;11.46;61.61
3697;BME280;60662;48.810;8.872;2023-04-07T10:28:55;96398.91;;;11.74;62.11
3697;BME280;60662;48.810;8.872;2023-04-07T10:29:59;96400.56;;;12.09;62.94
3697;BME280;60662;48.810;8.872;2023-04-07T10:31:02;96400.06;;;12.18;61.33
3697;BME280;60662;48.810;8.872;2023-04-07T10:32:04;96405.91;;;12.07;60.85
3697;BME280;60662;48.810;8.872;2023-04-07T10:33:05;96398.81;;;11.92;62.56
3697;BME280;60662;48.810;8.872;2023-04-07T10:34:07;96395.94;;;12.14;61.30
3697;BME280;60662;48.810;8.872;2023-04-07T10:35:08;96401.56;;;12.22;61.19
3697;BME280;60662;48.810;8.872;2023-04-07T10:36:10;96405.88;;;12.23;60.29
3697;BME280;60662;48.810;8.872;2023-04-07T10:37:13;96402.00;;;12.31;60.84
3697;BME280;60662;48.810;8.872;2023-04-07T10:38:17;96402.94;;;12.46;59.89
3697;BME280;60662;48.810;8.872;2023-04-07T10:39:19;96399.47;;;12.13;61.44
3697;BME280;60662;48.810;8.872;2023-04-07T10:41:32;96398.53;;;12.14;61.26
3697;BME280;60662;48.810;8.872;2023-04-07T10:43:41;96396.78;;;12.31;59.80
3697;BME280;60662;48.810;8.872;2023-04-07T10:44:46;96401.69;;;12.05;61.19
3697;BME280;60662;48.810;8.872;2023-04-07T10:48:22;96400.31;;;12.30;59.56
3697;BME280;60662;48.810;8.872;2023-04-07T10:49:24;96400.66;;;12.23;60.07
3697;BME280;60662;48.810;8.872;2023-04-07T10:50:25;96400.31;;;12.30;59.41
3697;BME280;60662;48.810;8.872;2023-04-07T10:51:28;96393.22;;;12.16;59.59
3697;BME280;60662;48.810;8.872;2023-04-07T10:52:30;96397.88;;;12.27;59.28
3697;BME280;60662;48.810;8.872;2023-04-07T10:53:32;96400.13;;;12.33;58.36
3697;BME280;60662;48.810;8.872;2023-04-07T10:54:34;96404.34;;;12.51;59.06
3697;BME280;60662;48.810;8.872;2023-04-07T10:55:40;96404.53;;;12.48;58.76
3697;BME280;60662;48.810;8.872;2023-04-07T10:59:23;96404.06;;;11.92;58.38
3697;BME280;60662;48.810;8.872;2023-04-07T11:00:28;96396.47;;;11.87;57.52
3697;BME280;60662;48.810;8.872;2023-04-07T11:01:29;96390.53;;;12.01;58.38
3697;BME280;60662;48.810;8.872;2023-04-07T11:02:31;96395.66;;;12.35;58.22
3697;BME280;60662;48.810;8.872;2023-04-07T11:03:35;96401.41;;;12.25;57.43
3697;BME280;60662;48.810;8.872;2023-04-07T11:04:38;96402.06;;;11.97;57.64
3697;BME280;60662;48.810;8.872;2023-04-07T11:05:41;96396.25;;;12.08;58.16
3697;BME280;60662;48.810;8.872;2023-04-07T11:06:46;96403.59;;;12.17;58.04
3697;BME280;60662;48.810;8.872;2023-04-07T11:07:50;96396.44;;;12.05;57.45
3697;BME280;60662;48.810;8.872;2023-04-07T11:08:53;96402.66;;;12.02;58.06
3697;BME280;60662;48.810;8.872;2023-04-07T11:10:13;96398.28;;;12.03;57.53
3697;BME280;60662;48.810;8.872;2023-04-07T11:11:39;96395.94;;;12.14;57.72
3697;BME280;60662;48.810;8.872;2023-04-07T11:12:42;96386.13;;;12.18;57.04
3697;BME280;60662;48.810;8.872;2023-04-07T11:13:44;96392.28;;;12.33;56.84
3697;BME280;60662;48.810;8.872;2023-04-07T11:14:50;96393.41;;;12.13;56.34
3697;BME280;60662;48.810;8.872;2023-04-07T11:15:52;96396.69;;;12.00;56.82
3697;BME280;60662;48.810;8.872;2023-04-07T11:16:53;96398.50;;;11.82;56.70
3697;BME280;60662;48.810;8.872;2023-04-07T11:19:15;96398.03;;;12.23;58.80
3697;BME280;60662;48.810;8.872;2023-04-07T11:20:16;96398.97;;;12.38;59.12
3697;BME280;60662;48.810;8.872;2023-04-07T11:21:18;96396.69;;;12.48;59.24
3697;BME280;60662;48.810;8.872;2023-04-07T11:22:20;96399.78;;;12.39;58.56
3697;BME280;60662;48.810;8.872;2023-04-07T11:23:24;96407.50;;;12.42;58.60
3697;BME280;60662;48.810;8.872;2023-04-07T11:24:36;96398.03;;;12.23;59.17
3697;BME280;60662;48.810;8.872;2023-04-07T11:25:38;96396.50;;;12.35;58.96
3697;BME280;60662;48.810;8.872;2023-04-07T11:26:42;96393.53;;;12.57;58.95
3697;BME280;60662;48.810;8.872;2023-04-07T11:27:43;96393.09;;;12.49;59.03
3697;BME280;60662;48.810;8.872;2023-04-07T11:28:46;96398.09;;;12.54;59.33
3697;BME280;60662;48.810;8.872;2023-04-07T11:29:48;96405.88;;;12.39;60.07
3697;BME280;60662;48.810;8.872;2023-04-07T11:30:52;96400.47;;;12.58;60.42
3697;BME280;60662;48.810;8.872;2023-04-07T11:31:56;96398.38;;;12.33;61.12
3697;BME280;60662;48.810;8.872;2023-04-07T11:32:58;96396.75;;;12.47;60.10
3697;BME280;60662;48.810;8.872;2023-04-07T11:34:02;96400.56;;;12.25;59.79
3697;BME280;60662;48.810;8.872;2023-04-07T11:35:06;96403.19;;;12.09;60.77
3697;BME280;60662;48.810;8.872;2023-04-07T11:36:07;96399.81;;;12.07;61.28
3697;BME280;60662;48.810;8.872;2023-04-07T11:37:23;96404.31;;;11.87;61.62
3697;BME280;60662;48.810;8.872;2023-04-07T11:38:27;96404.53;;;12.00;61.53
3697;BME280;60662;48.810;8.872;2023-04-07T11:39:28;96399.13;;;12.03;60.62
3697;BME280;60662;48.810;8.872;2023-04-07T11:40:35;96405.38;;;11.83;60.89
3697;BME280;60662;48.810;8.872;2023-04-07T11:41:45;96408.09;;;11.82;60.75
3697;BME280;60662;48.810;8.872;2023-04-07T11:42:47;96409.28;;;11.92;60.33
3697;BME280;60662;48.810;8.872;2023-04-07T11:44:02;96398.53;;;11.98;60.28
3697;BME280;60662;48.810;8.872;2023-04-07T11:45:05;96402.53;;;11.88;60.21
3697;BME280;60662;48.810;8.872;2023-04-07T11:46:17;96407.69;;;11.89;60.31
3697;BME280;60662;48.810;8.872;2023-04-07T11:47:18;96406.66;;;11.42;60.14
3697;BME280;60662;48.810;8.872;2023-04-07T11:48:31;96402.38;;;11.41;60.72
3697;BME280;60662;48.810;8.872;2023-04-07T11:49:32;96413.72;;;11.58;58.97
3697;BME280;60662;48.810;8.872;2023-04-07T11:50:40;96403.25;;;11.58;59.14
3697;BME280;60662;48.810;8.872;2023-04-07T11:51:43;96408.22;;;11.63;59.35
3697;BME280;60662;48.810;8.872;2023-04-07T11:52:48;96409.50;;;11.55;58.51
3697;BME280;60662;48.810;8.872;2023-04-07T11:53:56;96416.53;;;11.71;58.17
3697;BME280;60662;48.810;8.872;2023-04-07T11:54:57;96405.19;;;11.70;58.22
3697;BME280;60662;48.810;8.872;2023-04-07T11:56:01;96412.59;;;11.80;58.99
3697;BME280;60662;48.810;8.872;2023-04-07T11:57:02;96408.00;;;11.67;58.24
3697;BME280;60662;48.810;8.872;2023-04-07T11:58:05;96416.81;;;11.82;57.22
3697;BME280;60662;48.810;8.872;2023-04-07T11:59:07;96417.13;;;11.92;57.67
3697;BME280;60662;48.810;8.872;2023-04-07T12:00:10;96414.59;;;11.90;57.33
3697;BME280;60662;48.810;8.872;2023-04-07T12:01:12;96409.50;;;11.71;57.59
3697;BME280;60662;48.810;8.872;2023-04-07T12:11:24;96414.16;;;10.98;62.31
3697;BME280;60662;48.810;8.872;2023-04-07T12:12:27;96416.84;;;10.96;62.42
3697;BME280;60662;48.810;8.872;2023-04-07T12:13:29;96430.34;;;11.22;63.19
3697;BME280;60662;48.810;8.872;2023-04-07T12:14:31;96423.50;;;11.02;64.58
3697;BME280;60662;48.810;8.872;2023-04-07T12:15:34;96418.22;;;11.03;64.77
3697;BME280;60662;48.810;8.872;2023-04-07T12:16:37;96430.34;;;11.22;64.78
3697;BME280;60662;48.810;8.872;2023-04-07T12:17:44;96425.91;;;11.24;64.86
3697;BME280;60662;48.810;8.872;2023-04-07T12:18:47;96426.97;;;11.20;64.47
3697;BME280;60662;48.810;8.872;2023-04-07T13:50:30;96458.97;;;7.55;85.80
3697;BME280;60662;48.810;8.872;2023-04-07T13:51:32;96458.66;;;7.88;85.41
3697;BME280;60662;48.810;8.872;2023-04-07T13:52:34;96465.50;;;7.91;84.95
3697;BME280;60662;48.810;8.872;2023-04-07T13:53:35;96460.00;;;7.98;84.15
3697;BME280;60662;48.810;8.872;2023-04-07T13:54:37;96459.63;;;8.31;83.01
3697;BME280;60662;48.810;8.872;2023-04-07T13:55:38;96456.50;;;7.99;83.91
3697;BME280;60662;48.810;8.872;2023-04-07T13:56:40;96464.00;;;8.31;83.79
3697;BME280;60662;48.810;8.872;2023-04-07T13:57:41;96462.00;;;8.38;83.14
3697;BME280;60662;48.810;8.872;2023-04-07T13:58:43;96466.84;;;8.01;83.64
3697;BME280;60662;48.810;8.872;2023-04-07T13:59:45;96464.06;;;8.29;83.23
3697;BME280;60662;48.810;8.872;2023-04-07T14:00:46;96454.97;;;8.17;83.24
3697;BME280;60662;48.810;8.872;2023-04-07T14:01:48;96456.03;;;8.36;83.46
3697;BME280;60662;48.810;8.872;2023-04-07T14:02:50;96453.38;;;8.59;83.42
3697;BME280;60662;48.810;8.872;2023-04-07T14:03:51;96462.59;;;8.46;83.24
3697;BME280;60662;48.810;8.872;2023-04-07T14:04:54;96452.50;;;8.37;82.10
3697;BME280;60662;48.810;8.872;2023-04-07T14:27:17;96470.91;;;8.32;83.67
3697;BME280;60662;48.810;8.872;2023-04-07T14:28:21;96478.00;;;8.50;84.01
3697;BME280;60662;48.810;8.872;2023-04-07T14:29:22;96465.66;;;8.78;82.69
3697;BME280;60662;48.810;8.872;2023-04-07T14:30:24;96471.22;;;8.91;80.98
3697;BME280;60662;48.810;8.872;2023-04-07T14:31:26;96475.25;;;8.55;81.71
3697;BME280;60662;48.810;8.872;2023-04-07T14:32:29;96468.22;;;8.79;80.23
3697;BME280;60662;48.810;8.872;2023-04-07T14:33:33;96467.56;;;8.95;80.24
3697;BME280;60662;48.810;8.872;2023-04-07T14:34:34;96469.19;;;9.20;80.62
3697;BME280;60662;48.810;8.872;2023-04-07T14:35:36;96462.59;;;9.11;81.75
3697;BME280;60662;48.810;8.872;2023-04-07T14:36:37;96466.91;;;9.12;81.61
3697;BME280;60662;48.810;8.872;2023-04-07T14:37:39;96466.75;;;9.15;80.39
3697;BME280;60662;48.810;8.872;2023-04-07T14:38:42;96465.91;;;9.14;80.08
3697;BME280;60662;48.810;8.872;2023-04-07T14:39:43;96459.59;;;9.20;80.27
3697;BME280;60662;48.810;8.872;2023-04-07T14:41:02;96466.72;;;9.37;81.87
3697;BME280;60662;48.810;8.872;2023-04-07T14:42:06;96461.50;;;9.37;80.16
3697;BME280;60662;48.810;8.872;2023-04-07T14:43:08;96465.34;;;9.28;80.60
3697;BME280;60662;48.810;8.872;2023-04-07T14:44:10;96458.28;;;9.30;80.26
3697;BME280;60662;48.810;8.872;2023-04-07T14:45:12;96465.84;;;9.37;78.74
3697;BME280;60662;48.810;8.872;2023-04-07T14:46:16;96464.84;;;9.41;78.95
3697;BME280;60662;48.810;8.872;2023-04-07T14:47:18;96462.66;;;9.30;79.80
3697;BME280;60662;48.810;8.872;2023-04-07T14:48:20;96466.50;;;9.42;79.65
3697;BME280;60662;48.810;8.872;2023-04-07T14:49:22;96465.25;;;9.51;79.68
3697;BME280;60662;48.810;8.872;2023-04-07T14:50:25;96455.16;;;9.43;79.78
3697;BME280;60662;48.810;8.872;2023-04-07T14:51:27;96465.97;;;9.54;79.22
3697;BME280;60662;48.810;8.872;2023-04-07T15:21:48;96467.19;;;8.38;83.84
3697;BME280;60662;48.810;8.872;2023-04-07T15:22:50;96480.75;;;8.70;83.62
3697;BME280;60662;48.810;8.872;2023-04-07T15:23:51;96478.50;;;9.46;81.89
3697;BME280;60662;48.810;8.872;2023-04-07T15:24:53;96486.91;;;9.92;79.41
3697;BME280;60662;48.810;8.872;2023-04-07T15:25:54;96469.66;;;10.47;75.97
3697;BME280;60662;48.810;8.872;2023-04-07T15:26:57;96472.88;;;11.08;73.82
3697;BME280;60662;48.810;8.872;2023-04-07T15:27:58;96479.91;;;10.88;73.26
3697;BME280;60662;48.810;8.872;2023-04-07T15:29:00;96479.91;;;10.88;73.41
3697;BME280;60662;48.810;8.872;2023-04-07T15:30:02;96481.72;;;11.40;72.48
3697;BME280;60662;48.810;8.872;2023-04-07T15:31:04;96476.63;;;12.06;70.44
3697;BME280;60662;48.810;8.872;2023-04-07T15:32:10;96479.88;;;12.27;68.48
3697;BME280;60662;48.810;8.872;2023-04-07T15:33:11;96474.13;;;12.20;67.61
3697;BME280;60662;48.810;8.872;2023-04-07T15:34:13;96476.97;;;12.16;67.43
3697;BME280;60662;48.810;8.872;2023-04-07T15:35:15;96474.88;;;11.89;67.85
3697;BME280;60662;48.810;8.872;2023-04-07T15:36:16;96483.31;;;11.94;67.63
3697;BME280;60662;48.810;8.872;2023-04-07T15:37:17;96474.91;;;12.38;66.99
3697;BME280;60662;48.810;8.872;2023-04-07T15:38:19;96477.38;;;13.04;64.94
3697;BME280;60662;48.810;8.872;2023-04-07T15:39:20;96450.78;;;13.10;63.62
3697;BME280;60662;48.810;8.872;2023-04-07T15:40:22;96477.78;;;13.12;63.66
3697;BME280;60662;48.810;8.872;2023-04-07T15:41:23;96469.69;;;13.01;63.69